PWSweather.com
Personal Weather Stations
Station Observations
BRISTOL
HorfieldFilton, BristolGB BS7

HorfieldFiltonBristolGB BS7

Lat: 51.5, Lon: -2.576

Elevation: 272

Station Type: Davis VP2

http://www.martynhicks.co.uk/weather/data.php

Latest ConditionsUpdated 9:50:01 AM GMT Tuesday, Feb 28, 2017
Currently Today's Max Today's Min Today's Average
Temperature 41.2°F5.1°C 41.3°F5.2°C 34.9°F1.6°C 36.5°F2.5°C
Dew Point 37.0°F2.8°C 37.7°F3.2°C 33.6°F0.9°C 35.1°F1.7°C
Winds 4.6 mph W7.4 kmh W 6.9 mph W11.1 kmh W - 2.4 mph 3.9 kmh
Wind Gusts 11.5 mph18.5 kmh 15.0 mph24.1 kmh - -
Humidity 85% 100% 85% 94%
Pressure 29.21 in989.2 mb 29.21 in989.2 mb 29.07 in984.4 mb -
Precipitation - 0.01 in0.3 mm - -
Hour Temp Dew Point Humidity Winds Wind Gusts Pressure Precip Precip Rate Daily Precip Total
09:50 AM 41.2°F5.1°C 37.0°F2.8°C 85% 4.6 mph W7.4 kmh W 11.5 mph18.5 kmh 29.21 in989.2 mb - 0.00 in0.0 mm 0.01 in0.3 mm
09:40 AM 41.3°F5.2°C 37.7°F3.2°C 87% 5.8 mph W9.3 kmh W 11.5 mph18.5 kmh 29.20 in988.8 mb - 0.00 in0.0 mm 0.01 in0.3 mm
09:30 AM 40.4°F4.7°C 37.1°F2.8°C 88% 6.9 mph W11.1 kmh W 10.4 mph16.7 kmh 29.20 in988.8 mb - 0.00 in0.0 mm 0.01 in0.3 mm
09:20 AM 39.9°F4.4°C 37.2°F2.9°C 90% 4.6 mph WNW7.4 kmh WNW 10.4 mph16.7 kmh 29.20 in988.8 mb - 0.00 in0.0 mm 0.01 in0.3 mm
09:10 AM 39.3°F4.1°C 37.2°F2.9°C 92% 6.9 mph W11.1 kmh W 15.0 mph24.1 kmh 29.20 in988.8 mb - 0.00 in0.0 mm 0.01 in0.3 mm
09:00 AM 39.0°F3.9°C 37.1°F2.8°C 93% 1.2 mph W1.9 kmh W 3.5 mph5.6 kmh 29.19 in988.5 mb - 0.00 in0.0 mm 0.01 in0.3 mm
08:50 AM 38.8°F3.8°C 36.9°F2.7°C 93% 3.5 mph WSW5.6 kmh WSW 5.8 mph9.3 kmh 29.19 in988.5 mb - 0.00 in0.0 mm 0.01 in0.3 mm
08:40 AM 38.3°F3.5°C 36.7°F2.6°C 94% 1.2 mph WSW1.9 kmh WSW 5.8 mph9.3 kmh 29.18 in988.1 mb - 0.00 in0.0 mm 0.01 in0.3 mm
08:30 AM 37.5°F3.1°C 36.2°F2.3°C 95% 2.3 mph WSW3.7 kmh WSW 5.8 mph9.3 kmh 29.18 in988.1 mb - 0.00 in0.0 mm 0.01 in0.3 mm
08:20 AM 36.6°F2.6°C 35.3°F1.8°C 95% 1.2 mph WSW1.9 kmh WSW 3.5 mph5.6 kmh 29.18 in988.1 mb - 0.00 in0.0 mm 0.01 in0.3 mm
08:10 AM 36.2°F2.3°C 34.9°F1.6°C 95% 2.3 mph WSW3.7 kmh WSW 3.5 mph5.6 kmh 29.17 in987.8 mb - 0.00 in0.0 mm 0.01 in0.3 mm
08:00 AM 35.7°F2.1°C 34.4°F1.3°C 95% 1.2 mph WSW1.9 kmh WSW 3.5 mph5.6 kmh 29.17 in987.8 mb - 0.00 in0.0 mm 0.01 in0.3 mm
07:50 AM 35.3°F1.8°C 34.0°F1.1°C 95% 1.2 mph WSW1.9 kmh WSW 6.9 mph11.1 kmh 29.16 in987.5 mb - 0.00 in0.0 mm 0.01 in0.3 mm
07:40 AM 35.0°F1.7°C 33.7°F0.9°C 95% Calm Calm -- 29.16 in987.5 mb - 0.00 in0.0 mm 0.01 in0.3 mm
07:30 AM 34.9°F1.6°C 33.6°F0.9°C 95% Calm Calm -- 29.16 in987.5 mb - 0.00 in0.0 mm 0.01 in0.3 mm
07:20 AM 35.0°F1.7°C 33.7°F0.9°C 95% Calm Calm -- 29.15 in987.1 mb - 0.00 in0.0 mm 0.01 in0.3 mm
07:10 AM 35.1°F1.7°C 33.8°F1.0°C 95% Calm Calm 3.5 mph5.6 kmh 29.15 in987.1 mb - 0.00 in0.0 mm 0.01 in0.3 mm
07:00 AM 35.1°F1.7°C 33.8°F1.0°C 95% 1.2 mph WSW1.9 kmh WSW 5.8 mph9.3 kmh 29.14 in986.8 mb - 0.00 in0.0 mm 0.01 in0.3 mm
06:50 AM 35.1°F1.7°C 33.8°F1.0°C 95% 2.3 mph W3.7 kmh W 3.5 mph5.6 kmh 29.14 in986.8 mb - 0.00 in0.0 mm 0.01 in0.3 mm
06:40 AM 35.0°F1.7°C 33.7°F0.9°C 95% 2.3 mph W3.7 kmh W 6.9 mph11.1 kmh 29.14 in986.8 mb - 0.00 in0.0 mm 0.01 in0.3 mm
06:30 AM 34.9°F1.6°C 33.6°F0.9°C 95% 2.3 mph WSW3.7 kmh WSW 3.5 mph5.6 kmh 29.14 in986.8 mb - 0.00 in0.0 mm 0.01 in0.3 mm
06:20 AM 34.9°F1.6°C 33.6°F0.9°C 95% 2.3 mph WSW3.7 kmh WSW 3.5 mph5.6 kmh 29.14 in986.8 mb - 0.00 in0.0 mm 0.01 in0.3 mm
06:10 AM 34.9°F1.6°C 33.6°F0.9°C 95% 1.2 mph WSW1.9 kmh WSW 3.5 mph5.6 kmh 29.13 in986.5 mb - 0.00 in0.0 mm 0.01 in0.3 mm
06:00 AM 35.0°F1.7°C 33.7°F0.9°C 95% Calm Calm 3.5 mph5.6 kmh 29.14 in986.8 mb - 0.00 in0.0 mm 0.01 in0.3 mm
05:50 AM 35.0°F1.7°C 33.7°F0.9°C 95% Calm Calm 3.5 mph5.6 kmh 29.13 in986.5 mb - 0.00 in0.0 mm 0.01 in0.3 mm
05:40 AM 35.1°F1.7°C 33.8°F1.0°C 95% 1.2 mph WSW1.9 kmh WSW 3.5 mph5.6 kmh 29.13 in986.5 mb - 0.01 in0.3 mm 0.01 in0.3 mm
05:30 AM 35.0°F1.7°C 33.7°F0.9°C 95% Calm Calm 2.3 mph3.7 kmh 29.12 in986.1 mb - 0.00 in0.0 mm 0.00 in0.0 mm
05:20 AM 35.0°F1.7°C 33.7°F0.9°C 95% 1.2 mph WSW1.9 kmh WSW 3.5 mph5.6 kmh 29.12 in986.1 mb - 0.00 in0.0 mm 0.00 in0.0 mm
05:10 AM 35.1°F1.7°C 33.8°F1.0°C 95% 1.2 mph WSW1.9 kmh WSW 2.3 mph3.7 kmh 29.11 in985.8 mb - 0.00 in0.0 mm 0.00 in0.0 mm
05:00 AM 35.3°F1.8°C 34.0°F1.1°C 95% 2.3 mph SW3.7 kmh SW 3.5 mph5.6 kmh 29.11 in985.8 mb - 0.00 in0.0 mm 0.00 in0.0 mm
04:50 AM 35.4°F1.9°C 34.1°F1.2°C 95% 3.5 mph SW5.6 kmh SW 4.6 mph7.4 kmh 29.11 in985.8 mb - 0.00 in0.0 mm 0.00 in0.0 mm
04:40 AM 35.6°F2.0°C 34.3°F1.3°C 95% 2.3 mph WSW3.7 kmh WSW 3.5 mph5.6 kmh 29.11 in985.8 mb - 0.00 in0.0 mm 0.00 in0.0 mm
04:30 AM 35.8°F2.1°C 34.5°F1.4°C 95% Calm Calm 1.2 mph1.9 kmh 29.11 in985.8 mb - 0.00 in0.0 mm 0.00 in0.0 mm
04:20 AM 36.0°F2.2°C 34.7°F1.5°C 95% Calm Calm -- 29.11 in985.8 mb - 0.00 in0.0 mm 0.00 in0.0 mm
04:10 AM 36.2°F2.3°C 34.9°F1.6°C 95% 1.2 mph WSW1.9 kmh WSW 3.5 mph5.6 kmh 29.11 in985.8 mb - 0.00 in0.0 mm 0.00 in0.0 mm
04:00 AM 36.4°F2.4°C 35.1°F1.7°C 95% 3.5 mph WSW5.6 kmh WSW 9.2 mph14.8 kmh 29.10 in985.4 mb - 0.00 in0.0 mm 0.00 in0.0 mm
03:50 AM 36.5°F2.5°C 35.2°F1.8°C 95% 2.3 mph WSW3.7 kmh WSW 2.3 mph3.7 kmh 29.10 in985.4 mb - 0.00 in0.0 mm 0.00 in0.0 mm
03:40 AM 36.6°F2.6°C 35.3°F1.8°C 95% 2.3 mph WSW3.7 kmh WSW 5.8 mph9.3 kmh 29.10 in985.4 mb - 0.00 in0.0 mm 0.00 in0.0 mm
03:30 AM 36.6°F2.6°C 35.3°F1.8°C 95% 1.2 mph WSW1.9 kmh WSW 5.8 mph9.3 kmh 29.10 in985.4 mb - 0.00 in0.0 mm 0.00 in0.0 mm
03:20 AM 36.4°F2.4°C 35.1°F1.7°C 95% 3.5 mph SW5.6 kmh SW 3.5 mph5.6 kmh 29.10 in985.4 mb - 0.00 in0.0 mm 0.00 in0.0 mm
03:10 AM 36.5°F2.5°C 35.2°F1.8°C 95% 3.5 mph WSW5.6 kmh WSW 10.4 mph16.7 kmh 29.10 in985.4 mb - 0.00 in0.0 mm 0.00 in0.0 mm
03:00 AM 36.7°F2.6°C 36.7°F2.6°C 100% 5.8 mph W9.3 kmh W 9.2 mph14.8 kmh 29.10 in985.4 mb - 0.00 in0.0 mm 0.00 in0.0 mm
02:50 AM 36.7°F2.6°C 35.4°F1.9°C 95% 5.8 mph W9.3 kmh W 6.9 mph11.1 kmh 29.10 in985.4 mb - 0.00 in0.0 mm 0.00 in0.0 mm
02:40 AM 36.8°F2.7°C 35.5°F1.9°C 95% 2.3 mph WSW3.7 kmh WSW 6.9 mph11.1 kmh 29.09 in985.1 mb - 0.00 in0.0 mm 0.00 in0.0 mm
02:30 AM 36.9°F2.7°C 35.6°F2.0°C 95% 4.6 mph WSW7.4 kmh WSW 6.9 mph11.1 kmh 29.09 in985.1 mb - 0.00 in0.0 mm 0.00 in0.0 mm
02:20 AM 37.0°F2.8°C 35.7°F2.1°C 95% 5.8 mph WSW9.3 kmh WSW 8.1 mph13.0 kmh 29.10 in985.4 mb - 0.00 in0.0 mm 0.00 in0.0 mm
02:10 AM 37.1°F2.8°C 35.8°F2.1°C 95% 2.3 mph WSW3.7 kmh WSW 4.6 mph7.4 kmh 29.10 in985.4 mb - 0.00 in0.0 mm 0.00 in0.0 mm
02:00 AM 37.1°F2.8°C 35.8°F2.1°C 95% 2.3 mph WSW3.7 kmh WSW 8.1 mph13.0 kmh 29.09 in985.1 mb - 0.00 in0.0 mm 0.00 in0.0 mm
01:50 AM 37.1°F2.8°C 35.8°F2.1°C 95% 3.5 mph WSW5.6 kmh WSW 9.2 mph14.8 kmh 29.09 in985.1 mb - 0.00 in0.0 mm 0.00 in0.0 mm
01:40 AM 37.0°F2.8°C 35.7°F2.1°C 95% 2.3 mph SW3.7 kmh SW 11.5 mph18.5 kmh 29.09 in985.1 mb - 0.00 in0.0 mm 0.00 in0.0 mm
01:30 AM 36.9°F2.7°C 35.6°F2.0°C 95% 3.5 mph SW5.6 kmh SW 5.8 mph9.3 kmh 29.09 in985.1 mb - 0.00 in0.0 mm 0.00 in0.0 mm
01:20 AM 36.9°F2.7°C 35.6°F2.0°C 95% 3.5 mph WSW5.6 kmh WSW 8.1 mph13.0 kmh 29.09 in985.1 mb - 0.00 in0.0 mm 0.00 in0.0 mm
01:10 AM 36.8°F2.7°C 35.5°F1.9°C 95% 2.3 mph WSW3.7 kmh WSW 5.8 mph9.3 kmh 29.08 in984.8 mb - 0.00 in0.0 mm 0.00 in0.0 mm
01:00 AM 36.7°F2.6°C 35.4°F1.9°C 95% 5.8 mph W9.3 kmh W 11.5 mph18.5 kmh 29.08 in984.8 mb - 0.00 in0.0 mm 0.00 in0.0 mm
12:50 AM 36.6°F2.6°C 36.1°F2.3°C 98% 4.6 mph WSW7.4 kmh WSW 9.2 mph14.8 kmh 29.08 in984.8 mb - 0.00 in0.0 mm 0.00 in0.0 mm
12:40 AM 36.4°F2.4°C 34.8°F1.6°C 94% 2.3 mph WSW3.7 kmh WSW 6.9 mph11.1 kmh 29.08 in984.8 mb - 0.00 in0.0 mm 0.00 in0.0 mm
12:30 AM 36.4°F2.4°C 34.8°F1.6°C 94% 1.2 mph WSW1.9 kmh WSW 3.5 mph5.6 kmh 29.08 in984.8 mb - 0.00 in0.0 mm 0.00 in0.0 mm
12:20 AM 36.4°F2.4°C 34.8°F1.6°C 94% 1.2 mph SW1.9 kmh SW 3.5 mph5.6 kmh 29.07 in984.4 mb - 0.00 in0.0 mm 0.00 in0.0 mm
12:10 AM 36.5°F2.5°C 34.9°F1.6°C 94% Calm Calm 3.5 mph5.6 kmh 29.07 in984.4 mb - 0.00 in0.0 mm 0.00 in0.0 mm
12:00 AM 36.7°F2.6°C 35.1°F1.7°C 94% 3.5 mph SW5.6 kmh SW 4.6 mph7.4 kmh 29.07 in984.4 mb - 0.00 in0.0 mm 0.00 in0.0 mm